RU-0370 weather

Kochubeyevskoye Airport
Kochubeyevskoye, Stavropol Krai, Russia

Public forecast

Using degrees Celsius for public forecast. Weather courtesy of forecast.io.

METAR (pilot weather report)

Closest report is Stavropol Shpakovskoye Airport, 29.7 nm (55.1 km) NNE. Retrieved 2019/08/24 07:30 UTC (24 minutes ago):

URMT 240730Z 06005MPS CAVOK 29/11 Q1014 R07/010070 NOSIG RMK QFE721

TAF (pilot weather forecast)

Forecast is more than 12 hours old.

Closest forecast is Stavropol Shpakovskoye Airport, 29.7 nm (55.1 km) NNE. Retrieved 2019/08/03 03:15 UTC (21 days ago):

TAF URMT 030200Z 0303/0321 31005G12MPS 9999 SCT020